sensor_id;sensor_type;location;lat;lon;timestamp;P1;durP1;ratioP1;P2;durP2;ratioP2
75930;SDS011;64609;47.052;15.462;2024-03-17T08:29:34;5.32;;;1.60;;
75930;SDS011;64609;47.052;15.462;2024-03-17T08:32:00;3.58;;;1.73;;
75930;SDS011;64609;47.052;15.462;2024-03-17T08:34:25;5.10;;;1.65;;
75930;SDS011;64609;47.052;15.462;2024-03-17T08:36:52;2.25;;;1.35;;
75930;SDS011;64609;47.052;15.462;2024-03-17T08:39:18;2.55;;;1.40;;
75930;SDS011;64609;47.052;15.462;2024-03-17T08:41:44;2.17;;;1.52;;
75930;SDS011;64609;47.052;15.462;2024-03-17T08:44:10;3.65;;;1.40;;
75930;SDS011;64609;47.052;15.462;2024-03-17T08:46:36;1.65;;;1.10;;
75930;SDS011;64609;47.052;15.462;2024-03-17T08:49:01;4.00;;;1.00;;
75930;SDS011;64609;47.052;15.462;2024-03-17T08:51:27;1.77;;;1.00;;
75930;SDS011;64609;47.052;15.462;2024-03-17T08:53:53;1.67;;;1.10;;
75930;SDS011;64609;47.052;15.462;2024-03-17T08:56:19;1.35;;;0.98;;
75930;SDS011;64609;47.052;15.462;2024-03-17T08:58:48;1.10;;;1.00;;
75930;SDS011;64609;47.052;15.462;2024-03-17T09:01:14;3.00;;;1.08;;
75930;SDS011;64609;47.052;15.462;2024-03-17T09:03:43;2.28;;;1.05;;
75930;SDS011;64609;47.052;15.462;2024-03-17T09:06:15;0.80;;;0.80;;
75930;SDS011;64609;47.052;15.462;2024-03-17T09:08:42;2.13;;;0.70;;
75930;SDS011;64609;47.052;15.462;2024-03-17T09:11:14;0.95;;;0.65;;
75930;SDS011;64609;47.052;15.462;2024-03-17T09:13:39;1.15;;;0.70;;
75930;SDS011;64609;47.052;15.462;2024-03-17T09:16:05;2.10;;;0.70;;
75930;SDS011;64609;47.052;15.462;2024-03-17T09:18:32;1.05;;;0.68;;
75930;SDS011;64609;47.052;15.462;2024-03-17T09:21:07;0.60;;;0.50;;
75930;SDS011;64609;47.052;15.462;2024-03-17T09:23:33;3.00;;;0.60;;
75930;SDS011;64609;47.052;15.462;2024-03-17T09:28:27;1.88;;;1.00;;
75930;SDS011;64609;47.052;15.462;2024-03-17T09:30:54;0.68;;;0.68;;
75930;SDS011;64609;47.052;15.462;2024-03-17T09:33:21;0.63;;;0.57;;
75930;SDS011;64609;47.052;15.462;2024-03-17T09:38:20;1.65;;;0.60;;
75930;SDS011;64609;47.052;15.462;2024-03-17T09:40:46;1.30;;;0.82;;
75930;SDS011;64609;47.052;15.462;2024-03-17T09:43:13;1.10;;;0.70;;
75930;SDS011;64609;47.052;15.462;2024-03-17T09:45:38;1.10;;;0.70;;
75930;SDS011;64609;47.052;15.462;2024-03-17T09:48:04;1.75;;;0.70;;
75930;SDS011;64609;47.052;15.462;2024-03-17T09:50:30;0.75;;;0.75;;
75930;SDS011;64609;47.052;15.462;2024-03-17T09:52:58;1.58;;;0.88;;
75930;SDS011;64609;47.052;15.462;2024-03-17T09:55:24;1.20;;;0.82;;
75930;SDS011;64609;47.052;15.462;2024-03-17T09:57:50;1.50;;;0.90;;
75930;SDS011;64609;47.052;15.462;2024-03-17T10:00:16;1.52;;;0.80;;
75930;SDS011;64609;47.052;15.462;2024-03-17T10:02:45;1.60;;;0.75;;
75930;SDS011;64609;47.052;15.462;2024-03-17T10:05:22;2.38;;;0.90;;
75930;SDS011;64609;47.052;15.462;2024-03-17T10:07:49;1.73;;;0.55;;
75930;SDS011;64609;47.052;15.462;2024-03-17T10:10:18;0.57;;;0.57;;
75930;SDS011;64609;47.052;15.462;2024-03-17T10:12:52;1.05;;;0.70;;
75930;SDS011;64609;47.052;15.462;2024-03-17T10:15:18;2.03;;;0.70;;
75930;SDS011;64609;47.052;15.462;2024-03-17T10:17:44;1.95;;;0.68;;
75930;SDS011;64609;47.052;15.462;2024-03-17T10:20:14;0.60;;;0.55;;
75930;SDS011;64609;47.052;15.462;2024-03-17T10:23:06;1.00;;;0.60;;
75930;SDS011;64609;47.052;15.462;2024-03-17T10:25:39;0.73;;;0.60;;
75930;SDS011;64609;47.052;15.462;2024-03-17T10:28:11;0.93;;;0.60;;
75930;SDS011;64609;47.052;15.462;2024-03-17T10:30:38;0.55;;;0.55;;
75930;SDS011;64609;47.052;15.462;2024-03-17T10:33:05;0.63;;;0.63;;
75930;SDS011;64609;47.052;15.462;2024-03-17T10:35:37;0.75;;;0.60;;
75930;SDS011;64609;47.052;15.462;2024-03-17T10:38:07;0.57;;;0.57;;
75930;SDS011;64609;47.052;15.462;2024-03-17T10:40:34;3.72;;;1.02;;
75930;SDS011;64609;47.052;15.462;2024-03-17T10:43:03;1.60;;;0.80;;
75930;SDS011;64609;47.052;15.462;2024-03-17T10:45:29;0.73;;;0.70;;
75930;SDS011;64609;47.052;15.462;2024-03-17T10:48:02;0.70;;;0.60;;
75930;SDS011;64609;47.052;15.462;2024-03-17T10:50:33;1.38;;;0.80;;
75930;SDS011;64609;47.052;15.462;2024-03-17T10:53:03;0.65;;;0.65;;
75930;SDS011;64609;47.052;15.462;2024-03-17T10:55:36;1.27;;;0.80;;
75930;SDS011;64609;47.052;15.462;2024-03-17T10:58:06;0.65;;;0.50;;
75930;SDS011;64609;47.052;15.462;2024-03-17T11:00:48;2.58;;;0.73;;
75930;SDS011;64609;47.052;15.462;2024-03-17T11:03:15;1.10;;;0.55;;
75930;SDS011;64609;47.052;15.462;2024-03-17T11:05:43;0.60;;;0.60;;
75930;SDS011;64609;47.052;15.462;2024-03-17T11:08:14;0.60;;;0.60;;
75930;SDS011;64609;47.052;15.462;2024-03-17T11:10:48;0.80;;;0.60;;
75930;SDS011;64609;47.052;15.462;2024-03-17T11:13:23;0.85;;;0.60;;
75930;SDS011;64609;47.052;15.462;2024-03-17T11:15:56;1.02;;;0.70;;
75930;SDS011;64609;47.052;15.462;2024-03-17T11:18:38;0.60;;;0.60;;
75930;SDS011;64609;47.052;15.462;2024-03-17T11:21:10;0.82;;;0.70;;
75930;SDS011;64609;47.052;15.462;2024-03-17T11:24:05;3.53;;;0.80;;
75930;SDS011;64609;47.052;15.462;2024-03-17T11:26:31;1.50;;;0.55;;
75930;SDS011;64609;47.052;15.462;2024-03-17T11:28:58;0.60;;;0.60;;
75930;SDS011;64609;47.052;15.462;2024-03-17T11:33:58;2.25;;;0.70;;
75930;SDS011;64609;47.052;15.462;2024-03-17T11:36:30;2.55;;;0.52;;
75930;SDS011;64609;47.052;15.462;2024-03-17T11:38:59;1.30;;;0.90;;
75930;SDS011;64609;47.052;15.462;2024-03-17T11:41:40;0.47;;;0.40;;
75930;SDS011;64609;47.052;15.462;2024-03-17T11:44:39;1.30;;;0.93;;
75930;SDS011;64609;47.052;15.462;2024-03-17T11:47:02;1.30;;;0.80;;
75930;SDS011;64609;47.052;15.462;2024-03-17T11:49:38;1.02;;;0.90;;
75930;SDS011;64609;47.052;15.462;2024-03-17T11:52:08;0.60;;;0.60;;
75930;SDS011;64609;47.052;15.462;2024-03-17T11:54:38;1.00;;;0.70;;
75930;SDS011;64609;47.052;15.462;2024-03-17T11:57:06;1.02;;;0.63;;
75930;SDS011;64609;47.052;15.462;2024-03-17T11:59:36;0.90;;;0.70;;
75930;SDS011;64609;47.052;15.462;2024-03-17T12:02:09;1.38;;;0.88;;
75930;SDS011;64609;47.052;15.462;2024-03-17T12:04:45;0.80;;;0.60;;
75930;SDS011;64609;47.052;15.462;2024-03-17T12:07:12;2.88;;;0.80;;
75930;SDS011;64609;47.052;15.462;2024-03-17T12:09:40;2.05;;;0.60;;
75930;SDS011;64609;47.052;15.462;2024-03-17T12:14:39;0.40;;;0.40;;
75930;SDS011;64609;47.052;15.462;2024-03-17T12:17:06;0.60;;;0.60;;
75930;SDS011;64609;47.052;15.462;2024-03-17T12:19:33;1.23;;;0.70;;
75930;SDS011;64609;47.052;15.462;2024-03-17T12:22:00;0.93;;;0.70;;
75930;SDS011;64609;47.052;15.462;2024-03-17T12:24:27;0.50;;;0.50;;
75930;SDS011;64609;47.052;15.462;2024-03-17T12:26:54;1.00;;;0.70;;
75930;SDS011;64609;47.052;15.462;2024-03-17T12:29:28;1.13;;;0.47;;
75930;SDS011;64609;47.052;15.462;2024-03-17T12:31:58;0.60;;;0.50;;
75930;SDS011;64609;47.052;15.462;2024-03-17T12:34:25;1.45;;;0.43;;
75930;SDS011;64609;47.052;15.462;2024-03-17T12:36:52;0.50;;;0.50;;
75930;SDS011;64609;47.052;15.462;2024-03-17T12:42:01;0.98;;;0.70;;
75930;SDS011;64609;47.052;15.462;2024-03-17T12:44:33;2.25;;;0.80;;
75930;SDS011;64609;47.052;15.462;2024-03-17T12:47:04;0.70;;;0.60;;
75930;SDS011;64609;47.052;15.462;2024-03-17T12:49:31;1.25;;;0.60;;
75930;SDS011;64609;47.052;15.462;2024-03-17T12:54:27;0.68;;;0.60;;
75930;SDS011;64609;47.052;15.462;2024-03-17T12:57:03;0.47;;;0.47;;
75930;SDS011;64609;47.052;15.462;2024-03-17T12:59:49;1.45;;;0.57;;
75930;SDS011;64609;47.052;15.462;2024-03-17T13:02:33;0.90;;;0.50;;
75930;SDS011;64609;47.052;15.462;2024-03-17T13:05:10;0.45;;;0.40;;
75930;SDS011;64609;47.052;15.462;2024-03-17T13:07:46;2.55;;;0.60;;
75930;SDS011;64609;47.052;15.462;2024-03-17T13:10:18;0.65;;;0.65;;
75930;SDS011;64609;47.052;15.462;2024-03-17T13:12:45;1.50;;;0.80;;
75930;SDS011;64609;47.052;15.462;2024-03-17T13:15:12;1.10;;;0.68;;
75930;SDS011;64609;47.052;15.462;2024-03-17T13:17:42;0.47;;;0.47;;
75930;SDS011;64609;47.052;15.462;2024-03-17T13:20:15;6.22;;;0.50;;
75930;SDS011;64609;47.052;15.462;2024-03-17T13:22:44;0.50;;;0.50;;
75930;SDS011;64609;47.052;15.462;2024-03-17T13:25:17;0.95;;;0.73;;
75930;SDS011;64609;47.052;15.462;2024-03-17T13:27:46;1.55;;;0.80;;
75930;SDS011;64609;47.052;15.462;2024-03-17T13:30:13;0.65;;;0.60;;
75930;SDS011;64609;47.052;15.462;2024-03-17T13:32:39;1.35;;;0.70;;
75930;SDS011;64609;47.052;15.462;2024-03-17T13:35:13;1.80;;;0.70;;
75930;SDS011;64609;47.052;15.462;2024-03-17T13:37:41;0.68;;;0.68;;
75930;SDS011;64609;47.052;15.462;2024-03-17T13:40:07;1.08;;;0.60;;
75930;SDS011;64609;47.052;15.462;2024-03-17T13:42:35;1.00;;;0.80;;
75930;SDS011;64609;47.052;15.462;2024-03-17T13:45:00;0.88;;;0.80;;
75930;SDS011;64609;47.052;15.462;2024-03-17T13:47:26;0.82;;;0.75;;
75930;SDS011;64609;47.052;15.462;2024-03-17T13:49:52;0.80;;;0.65;;
75930;SDS011;64609;47.052;15.462;2024-03-17T13:52:18;0.70;;;0.70;;
75930;SDS011;64609;47.052;15.462;2024-03-17T13:54:44;1.20;;;0.65;;
75930;SDS011;64609;47.052;15.462;2024-03-17T13:57:10;4.20;;;0.77;;
75930;SDS011;64609;47.052;15.462;2024-03-17T13:59:37;1.60;;;0.70;;
75930;SDS011;64609;47.052;15.462;2024-03-17T14:02:03;1.83;;;0.95;;
75930;SDS011;64609;47.052;15.462;2024-03-17T14:04:29;1.52;;;0.90;;
75930;SDS011;64609;47.052;15.462;2024-03-17T14:06:56;2.30;;;1.20;;
75930;SDS011;64609;47.052;15.462;2024-03-17T14:09:21;1.88;;;1.10;;
75930;SDS011;64609;47.052;15.462;2024-03-17T14:11:47;0.95;;;0.95;;
75930;SDS011;64609;47.052;15.462;2024-03-17T14:14:14;1.20;;;1.00;;
75930;SDS011;64609;47.052;15.462;2024-03-17T14:16:40;2.10;;;0.80;;
75930;SDS011;64609;47.052;15.462;2024-03-17T14:19:07;1.83;;;1.23;;
75930;SDS011;64609;47.052;15.462;2024-03-17T14:21:33;1.42;;;1.15;;
75930;SDS011;64609;47.052;15.462;2024-03-17T14:23:59;1.35;;;0.85;;
75930;SDS011;64609;47.052;15.462;2024-03-17T14:26:26;1.20;;;1.00;;
75930;SDS011;64609;47.052;15.462;2024-03-17T14:28:52;1.95;;;1.25;;
75930;SDS011;64609;47.052;15.462;2024-03-17T14:31:19;0.85;;;0.80;;
75930;SDS011;64609;47.052;15.462;2024-03-17T14:33:45;1.10;;;0.80;;
75930;SDS011;64609;47.052;15.462;2024-03-17T14:36:11;1.33;;;0.77;;
75930;SDS011;64609;47.052;15.462;2024-03-17T14:38:36;0.88;;;0.80;;
75930;SDS011;64609;47.052;15.462;2024-03-17T14:41:02;1.08;;;0.95;;
75930;SDS011;64609;47.052;15.462;2024-03-17T14:43:29;1.35;;;0.85;;
75930;SDS011;64609;47.052;15.462;2024-03-17T14:45:55;1.25;;;1.00;;
75930;SDS011;64609;47.052;15.462;2024-03-17T14:48:22;1.55;;;1.10;;
75930;SDS011;64609;47.052;15.462;2024-03-17T14:50:48;3.38;;;1.30;;
75930;SDS011;64609;47.052;15.462;2024-03-17T14:53:14;1.35;;;1.10;;
75930;SDS011;64609;47.052;15.462;2024-03-17T14:55:39;1.30;;;1.20;;
75930;SDS011;64609;47.052;15.462;2024-03-17T14:58:08;2.78;;;1.30;;
75930;SDS011;64609;47.052;15.462;2024-03-17T15:00:35;1.42;;;1.25;;
75930;SDS011;64609;47.052;15.462;2024-03-17T15:03:00;2.30;;;1.38;;
75930;SDS011;64609;47.052;15.462;2024-03-17T15:05:26;2.13;;;1.20;;
75930;SDS011;64609;47.052;15.462;2024-03-17T15:07:52;1.83;;;1.30;;
75930;SDS011;64609;47.052;15.462;2024-03-17T15:10:18;2.95;;;1.38;;
75930;SDS011;64609;47.052;15.462;2024-03-17T15:12:49;2.42;;;1.48;;
75930;SDS011;64609;47.052;15.462;2024-03-17T15:15:15;2.70;;;1.37;;
75930;SDS011;64609;47.052;15.462;2024-03-17T15:17:40;2.45;;;1.42;;
75930;SDS011;64609;47.052;15.462;2024-03-17T15:20:09;1.73;;;1.30;;
75930;SDS011;64609;47.052;15.462;2024-03-17T15:22:44;2.50;;;1.40;;
75930;SDS011;64609;47.052;15.462;2024-03-17T15:25:11;2.97;;;1.60;;
75930;SDS011;64609;47.052;15.462;2024-03-17T15:27:39;1.95;;;1.48;;
75930;SDS011;64609;47.052;15.462;2024-03-17T15:30:06;3.03;;;1.73;;
75930;SDS011;64609;47.052;15.462;2024-03-17T15:32:33;4.50;;;1.85;;
75930;SDS011;64609;47.052;15.462;2024-03-17T15:34:58;2.38;;;1.75;;
75930;SDS011;64609;47.052;15.462;2024-03-17T15:37:25;4.72;;;1.60;;
75930;SDS011;64609;47.052;15.462;2024-03-17T15:39:51;3.28;;;1.63;;
75930;SDS011;64609;47.052;15.462;2024-03-17T15:42:17;5.43;;;1.63;;
75930;SDS011;64609;47.052;15.462;2024-03-17T15:44:44;4.13;;;1.70;;
75930;SDS011;64609;47.052;15.462;2024-03-17T15:47:10;5.07;;;1.80;;
75930;SDS011;64609;47.052;15.462;2024-03-17T15:49:36;3.35;;;1.50;;
75930;SDS011;64609;47.052;15.462;2024-03-17T15:52:02;3.70;;;2.22;;
75930;SDS011;64609;47.052;15.462;2024-03-17T15:54:28;6.25;;;2.92;;
75930;SDS011;64609;47.052;15.462;2024-03-17T15:56:54;3.85;;;2.10;;
75930;SDS011;64609;47.052;15.462;2024-03-17T15:59:20;4.88;;;2.00;;
75930;SDS011;64609;47.052;15.462;2024-03-17T16:01:47;4.10;;;1.73;;
75930;SDS011;64609;47.052;15.462;2024-03-17T16:04:17;4.50;;;1.80;;
75930;SDS011;64609;47.052;15.462;2024-03-17T16:06:43;3.20;;;1.80;;
75930;SDS011;64609;47.052;15.462;2024-03-17T16:09:12;3.97;;;2.00;;
75930;SDS011;64609;47.052;15.462;2024-03-17T16:11:39;5.83;;;2.13;;
75930;SDS011;64609;47.052;15.462;2024-03-17T16:14:05;2.83;;;1.80;;
75930;SDS011;64609;47.052;15.462;2024-03-17T16:16:32;2.83;;;1.73;;
75930;SDS011;64609;47.052;15.462;2024-03-17T16:18:58;3.30;;;1.73;;
75930;SDS011;64609;47.052;15.462;2024-03-17T16:21:26;2.53;;;1.50;;
75930;SDS011;64609;47.052;15.462;2024-03-17T16:26:24;2.20;;;1.90;;
75930;SDS011;64609;47.052;15.462;2024-03-17T16:28:51;2.05;;;1.52;;
75930;SDS011;64609;47.052;15.462;2024-03-17T16:31:17;5.90;;;2.10;;
75930;SDS011;64609;47.052;15.462;2024-03-17T16:33:44;6.30;;;2.28;;
75930;SDS011;64609;47.052;15.462;2024-03-17T16:36:10;3.83;;;1.98;;
75930;SDS011;64609;47.052;15.462;2024-03-17T16:38:36;6.28;;;2.30;;
75930;SDS011;64609;47.052;15.462;2024-03-17T16:41:03;5.78;;;2.30;;
75930;SDS011;64609;47.052;15.462;2024-03-17T16:43:43;5.57;;;1.92;;
75930;SDS011;64609;47.052;15.462;2024-03-17T16:49:17;4.63;;;2.13;;
75930;SDS011;64609;47.052;15.462;2024-03-17T16:51:45;4.25;;;2.08;;
75930;SDS011;64609;47.052;15.462;2024-03-17T16:54:11;6.35;;;2.40;;
75930;SDS011;64609;47.052;15.462;2024-03-17T16:56:37;4.45;;;2.22;;
75930;SDS011;64609;47.052;15.462;2024-03-17T16:59:03;5.93;;;2.22;;
75930;SDS011;64609;47.052;15.462;2024-03-17T17:01:32;4.03;;;2.08;;
75930;SDS011;64609;47.052;15.462;2024-03-17T17:04:01;7.93;;;3.50;;
75930;SDS011;64609;47.052;15.462;2024-03-17T17:06:27;7.72;;;1.90;;
75930;SDS011;64609;47.052;15.462;2024-03-17T17:08:53;5.72;;;2.10;;
75930;SDS011;64609;47.052;15.462;2024-03-17T17:11:19;3.70;;;2.30;;
75930;SDS011;64609;47.052;15.462;2024-03-17T17:13:44;4.95;;;2.20;;
75930;SDS011;64609;47.052;15.462;2024-03-17T17:16:11;6.18;;;2.40;;
75930;SDS011;64609;47.052;15.462;2024-03-17T17:18:50;3.80;;;2.30;;
75930;SDS011;64609;47.052;15.462;2024-03-17T17:21:23;6.97;;;2.70;;
75930;SDS011;64609;47.052;15.462;2024-03-17T17:23:50;6.60;;;2.40;;
75930;SDS011;64609;47.052;15.462;2024-03-17T17:26:17;5.45;;;2.85;;
75930;SDS011;64609;47.052;15.462;2024-03-17T17:28:45;4.65;;;2.63;;
75930;SDS011;64609;47.052;15.462;2024-03-17T17:31:11;6.53;;;2.60;;
75930;SDS011;64609;47.052;15.462;2024-03-17T17:33:38;4.50;;;2.25;;
75930;SDS011;64609;47.052;15.462;2024-03-17T17:36:07;4.80;;;2.58;;
75930;SDS011;64609;47.052;15.462;2024-03-17T17:38:34;5.65;;;2.63;;
75930;SDS011;64609;47.052;15.462;2024-03-17T17:41:02;8.63;;;2.83;;
75930;SDS011;64609;47.052;15.462;2024-03-17T17:43:37;4.88;;;2.58;;
75930;SDS011;64609;47.052;15.462;2024-03-17T17:46:09;7.95;;;2.72;;
75930;SDS011;64609;47.052;15.462;2024-03-17T17:51:02;8.20;;;2.90;;
75930;SDS011;64609;47.052;15.462;2024-03-17T17:53:29;8.50;;;2.63;;
75930;SDS011;64609;47.052;15.462;2024-03-17T17:55:55;3.88;;;2.35;;
75930;SDS011;64609;47.052;15.462;2024-03-17T17:58:20;6.10;;;2.60;;
75930;SDS011;64609;47.052;15.462;2024-03-17T18:00:46;4.18;;;2.67;;
75930;SDS011;64609;47.052;15.462;2024-03-17T18:03:13;6.13;;;3.00;;
75930;SDS011;64609;47.052;15.462;2024-03-17T18:05:39;8.60;;;2.90;;
75930;SDS011;64609;47.052;15.462;2024-03-17T18:08:08;6.75;;;2.90;;
75930;SDS011;64609;47.052;15.462;2024-03-17T18:10:37;6.30;;;2.83;;
75930;SDS011;64609;47.052;15.462;2024-03-17T18:13:03;5.20;;;2.90;;
75930;SDS011;64609;47.052;15.462;2024-03-17T18:15:29;7.25;;;3.03;;
75930;SDS011;64609;47.052;15.462;2024-03-17T18:17:56;9.30;;;3.08;;
75930;SDS011;64609;47.052;15.462;2024-03-17T18:20:21;5.63;;;2.70;;
75930;SDS011;64609;47.052;15.462;2024-03-17T18:22:47;5.88;;;3.22;;
75930;SDS011;64609;47.052;15.462;2024-03-17T18:25:13;7.97;;;3.20;;
75930;SDS011;64609;47.052;15.462;2024-03-17T18:27:39;6.90;;;2.65;;
75930;SDS011;64609;47.052;15.462;2024-03-17T18:30:05;3.60;;;2.80;;
75930;SDS011;64609;47.052;15.462;2024-03-17T18:32:31;7.25;;;3.25;;
75930;SDS011;64609;47.052;15.462;2024-03-17T18:34:57;4.55;;;2.70;;
75930;SDS011;64609;47.052;15.462;2024-03-17T18:37:22;5.45;;;3.00;;
75930;SDS011;64609;47.052;15.462;2024-03-17T18:39:51;6.43;;;3.20;;
75930;SDS011;64609;47.052;15.462;2024-03-17T18:42:17;7.45;;;3.45;;
75930;SDS011;64609;47.052;15.462;2024-03-17T18:44:44;9.88;;;3.25;;
75930;SDS011;64609;47.052;15.462;2024-03-17T18:47:10;6.30;;;3.20;;
75930;SDS011;64609;47.052;15.462;2024-03-17T18:49:36;5.45;;;3.03;;
75930;SDS011;64609;47.052;15.462;2024-03-17T18:52:02;8.18;;;3.33;;
75930;SDS011;64609;47.052;15.462;2024-03-17T18:54:31;8.90;;;2.97;;
75930;SDS011;64609;47.052;15.462;2024-03-17T18:56:57;6.20;;;2.92;;
75930;SDS011;64609;47.052;15.462;2024-03-17T18:59:26;7.40;;;3.47;;
75930;SDS011;64609;47.052;15.462;2024-03-17T19:01:53;6.10;;;3.17;;
75930;SDS011;64609;47.052;15.462;2024-03-17T19:04:21;7.35;;;3.70;;
75930;SDS011;64609;47.052;15.462;2024-03-17T19:06:46;9.18;;;3.65;;
75930;SDS011;64609;47.052;15.462;2024-03-17T19:09:12;7.63;;;3.35;;
75930;SDS011;64609;47.052;15.462;2024-03-17T19:11:40;6.68;;;3.80;;
75930;SDS011;64609;47.052;15.462;2024-03-17T19:14:06;8.38;;;3.72;;
75930;SDS011;64609;47.052;15.462;2024-03-17T19:16:34;9.20;;;3.58;;
75930;SDS011;64609;47.052;15.462;2024-03-17T19:19:01;7.35;;;3.88;;
75930;SDS011;64609;47.052;15.462;2024-03-17T19:21:28;6.93;;;3.42;;
75930;SDS011;64609;47.052;15.462;2024-03-17T19:23:58;6.27;;;3.60;;
75930;SDS011;64609;47.052;15.462;2024-03-17T19:26:24;6.20;;;3.22;;
75930;SDS011;64609;47.052;15.462;2024-03-17T19:28:52;5.30;;;3.30;;
75930;SDS011;64609;47.052;15.462;2024-03-17T19:31:21;6.45;;;3.47;;
75930;SDS011;64609;47.052;15.462;2024-03-17T19:33:48;8.20;;;3.45;;
75930;SDS011;64609;47.052;15.462;2024-03-17T19:36:14;7.05;;;3.67;;
75930;SDS011;64609;47.052;15.462;2024-03-17T19:38:40;7.20;;;3.78;;
75930;SDS011;64609;47.052;15.462;2024-03-17T19:41:08;5.93;;;3.53;;
75930;SDS011;64609;47.052;15.462;2024-03-17T19:43:34;8.07;;;3.67;;
75930;SDS011;64609;47.052;15.462;2024-03-17T19:46:03;6.60;;;3.30;;
75930;SDS011;64609;47.052;15.462;2024-03-17T19:48:38;6.85;;;3.60;;
75930;SDS011;64609;47.052;15.462;2024-03-17T19:51:12;6.95;;;3.33;;
75930;SDS011;64609;47.052;15.462;2024-03-17T19:53:40;6.82;;;3.50;;
75930;SDS011;64609;47.052;15.462;2024-03-17T19:56:07;8.63;;;3.70;;
75930;SDS011;64609;47.052;15.462;2024-03-17T19:58:35;7.45;;;4.00;;
75930;SDS011;64609;47.052;15.462;2024-03-17T20:01:02;6.75;;;3.45;;
75930;SDS011;64609;47.052;15.462;2024-03-17T20:03:28;7.90;;;3.78;;
75930;SDS011;64609;47.052;15.462;2024-03-17T20:05:55;8.90;;;3.90;;
75930;SDS011;64609;47.052;15.462;2024-03-17T20:08:22;8.88;;;3.47;;
75930;SDS011;64609;47.052;15.462;2024-03-17T20:10:47;6.40;;;3.13;;
75930;SDS011;64609;47.052;15.462;2024-03-17T20:13:14;7.43;;;3.75;;
75930;SDS011;64609;47.052;15.462;2024-03-17T20:15:40;7.35;;;3.40;;
75930;SDS011;64609;47.052;15.462;2024-03-17T20:18:06;6.97;;;3.58;;
75930;SDS011;64609;47.052;15.462;2024-03-17T20:20:32;7.05;;;3.50;;
75930;SDS011;64609;47.052;15.462;2024-03-17T20:22:58;7.47;;;3.38;;
75930;SDS011;64609;47.052;15.462;2024-03-17T20:25:24;6.93;;;3.30;;
75930;SDS011;64609;47.052;15.462;2024-03-17T20:27:50;8.07;;;3.97;;
75930;SDS011;64609;47.052;15.462;2024-03-17T20:30:15;6.68;;;3.25;;
75930;SDS011;64609;47.052;15.462;2024-03-17T20:32:48;5.68;;;3.13;;
75930;SDS011;64609;47.052;15.462;2024-03-17T20:35:14;4.57;;;3.45;;
75930;SDS011;64609;47.052;15.462;2024-03-17T20:37:40;6.97;;;3.28;;
75930;SDS011;64609;47.052;15.462;2024-03-17T20:40:07;4.65;;;3.28;;
75930;SDS011;64609;47.052;15.462;2024-03-17T20:42:35;7.63;;;3.58;;
75930;SDS011;64609;47.052;15.462;2024-03-17T20:45:04;7.25;;;3.70;;
75930;SDS011;64609;47.052;15.462;2024-03-17T20:47:30;6.63;;;3.50;;
75930;SDS011;64609;47.052;15.462;2024-03-17T20:49:55;9.88;;;3.67;;
75930;SDS011;64609;47.052;15.462;2024-03-17T20:52:22;8.70;;;4.32;;
75930;SDS011;64609;47.052;15.462;2024-03-17T20:54:48;9.43;;;4.32;;
75930;SDS011;64609;47.052;15.462;2024-03-17T20:57:14;8.43;;;3.80;;
75930;SDS011;64609;47.052;15.462;2024-03-17T20:59:39;12.68;;;3.90;;
75930;SDS011;64609;47.052;15.462;2024-03-17T21:02:05;8.23;;;3.78;;
75930;SDS011;64609;47.052;15.462;2024-03-17T21:04:31;12.43;;;3.42;;
75930;SDS011;64609;47.052;15.462;2024-03-17T21:06:57;10.27;;;3.45;;
75930;SDS011;64609;47.052;15.462;2024-03-17T21:09:27;4.53;;;3.15;;
75930;SDS011;64609;47.052;15.462;2024-03-17T21:11:53;7.05;;;3.70;;
75930;SDS011;64609;47.052;15.462;2024-03-17T21:14:24;9.30;;;3.35;;
75930;SDS011;64609;47.052;15.462;2024-03-17T21:16:50;5.75;;;3.60;;
75930;SDS011;64609;47.052;15.462;2024-03-17T21:19:15;8.68;;;3.83;;
75930;SDS011;64609;47.052;15.462;2024-03-17T21:21:42;7.70;;;3.88;;
75930;SDS011;64609;47.052;15.462;2024-03-17T21:24:08;7.22;;;3.72;;
75930;SDS011;64609;47.052;15.462;2024-03-17T21:26:34;6.68;;;3.55;;
75930;SDS011;64609;47.052;15.462;2024-03-17T21:28:59;7.00;;;4.13;;
75930;SDS011;64609;47.052;15.462;2024-03-17T21:31:26;6.10;;;3.67;;
75930;SDS011;64609;47.052;15.462;2024-03-17T21:33:51;6.95;;;4.05;;
75930;SDS011;64609;47.052;15.462;2024-03-17T21:36:18;7.40;;;4.20;;
75930;SDS011;64609;47.052;15.462;2024-03-17T21:38:44;8.70;;;4.35;;
75930;SDS011;64609;47.052;15.462;2024-03-17T21:41:11;6.57;;;4.03;;
75930;SDS011;64609;47.052;15.462;2024-03-17T21:43:39;8.65;;;4.18;;
75930;SDS011;64609;47.052;15.462;2024-03-17T21:46:06;6.68;;;4.00;;
75930;SDS011;64609;47.052;15.462;2024-03-17T21:48:33;5.40;;;3.55;;
75930;SDS011;64609;47.052;15.462;2024-03-17T21:50:59;6.40;;;4.00;;
75930;SDS011;64609;47.052;15.462;2024-03-17T21:53:25;7.78;;;3.88;;
75930;SDS011;64609;47.052;15.462;2024-03-17T21:55:58;7.95;;;4.32;;
75930;SDS011;64609;47.052;15.462;2024-03-17T21:58:25;7.68;;;3.70;;
75930;SDS011;64609;47.052;15.462;2024-03-17T22:00:50;7.38;;;4.22;;
75930;SDS011;64609;47.052;15.462;2024-03-17T22:03:17;8.30;;;3.92;;
75930;SDS011;64609;47.052;15.462;2024-03-17T22:05:48;7.18;;;4.00;;
75930;SDS011;64609;47.052;15.462;2024-03-17T22:08:18;8.63;;;4.20;;
75930;SDS011;64609;47.052;15.462;2024-03-17T22:10:56;7.05;;;3.75;;
75930;SDS011;64609;47.052;15.462;2024-03-17T22:13:26;6.60;;;4.32;;
75930;SDS011;64609;47.052;15.462;2024-03-17T22:18:20;12.90;;;4.45;;
75930;SDS011;64609;47.052;15.462;2024-03-17T22:23:19;11.73;;;5.93;;
75930;SDS011;64609;47.052;15.462;2024-03-17T22:25:52;9.63;;;5.68;;
75930;SDS011;64609;47.052;15.462;2024-03-17T22:28:19;9.77;;;6.00;;
75930;SDS011;64609;47.052;15.462;2024-03-17T22:30:55;8.77;;;5.88;;
75930;SDS011;64609;47.052;15.462;2024-03-17T22:33:25;12.35;;;7.22;;
75930;SDS011;64609;47.052;15.462;2024-03-17T22:35:56;13.77;;;6.18;;
75930;SDS011;64609;47.052;15.462;2024-03-17T22:38:22;11.00;;;5.90;;
75930;SDS011;64609;47.052;15.462;2024-03-17T22:41:02;10.00;;;6.32;;
75930;SDS011;64609;47.052;15.462;2024-03-17T22:43:33;11.52;;;5.65;;
75930;SDS011;64609;47.052;15.462;2024-03-17T22:46:00;9.75;;;5.45;;
75930;SDS011;64609;47.052;15.462;2024-03-17T22:48:30;9.70;;;4.88;;
75930;SDS011;64609;47.052;15.462;2024-03-17T22:51:00;8.13;;;4.68;;
75930;SDS011;64609;47.052;15.462;2024-03-17T22:53:33;8.73;;;4.75;;
75930;SDS011;64609;47.052;15.462;2024-03-17T22:55:59;9.30;;;5.10;;
75930;SDS011;64609;47.052;15.462;2024-03-17T22:58:25;8.48;;;4.85;;
75930;SDS011;64609;47.052;15.462;2024-03-17T23:00:51;11.90;;;5.13;;
75930;SDS011;64609;47.052;15.462;2024-03-17T23:03:21;7.07;;;4.22;;
75930;SDS011;64609;47.052;15.462;2024-03-17T23:05:47;8.70;;;4.60;;
75930;SDS011;64609;47.052;15.462;2024-03-17T23:08:16;7.15;;;4.28;;
75930;SDS011;64609;47.052;15.462;2024-03-17T23:10:43;6.88;;;4.38;;
75930;SDS011;64609;47.052;15.462;2024-03-17T23:13:13;11.23;;;4.68;;
75930;SDS011;64609;47.052;15.462;2024-03-17T23:15:39;8.10;;;4.85;;
75930;SDS011;64609;47.052;15.462;2024-03-17T23:18:06;7.63;;;4.32;;
75930;SDS011;64609;47.052;15.462;2024-03-17T23:20:32;8.77;;;4.90;;
75930;SDS011;64609;47.052;15.462;2024-03-17T23:22:58;9.40;;;5.07;;
75930;SDS011;64609;47.052;15.462;2024-03-17T23:25:33;8.90;;;5.25;;
75930;SDS011;64609;47.052;15.462;2024-03-17T23:28:02;12.87;;;5.30;;
75930;SDS011;64609;47.052;15.462;2024-03-17T23:30:29;9.15;;;5.82;;
75930;SDS011;64609;47.052;15.462;2024-03-17T23:32:55;9.18;;;6.13;;
75930;SDS011;64609;47.052;15.462;2024-03-17T23:35:20;7.70;;;5.22;;